• Join FlightAware (Why Join?)
  • Login
  • US Flag 
07:54PM EDT


 

Airport Tracker/Info


-or-


 

Live Flight TrackerFlight Track Log ✈ WIG1042 ✈ 29-Aug-2013 ✈ KMHT - KBTV

Flight Track Log - Related Links

Times and Time Zones

All times are in EDT time to prevent confusion due to time zone crossing. See the WIG1042 flight status page for this flight to view local times or setup timezone preferences in your user account.

Time Position Orientation Groundspeed Altitude Reporting Facility
EDT Latitude Longitude Course Direction KTS MPH feet Rate Location/Type
07:00AM 42.9500 -71.4167 324° Northwest 133 153 800  Level KA90
07:00AM 42.9667 -71.4333 324° Northwest 148 170 1,700 1,200 Climbing KA90
07:01AM 43.0167 -71.4667 334° Northwest 165 190 2,800 1,140 Climbing KA90
07:02AM 43.0500 -71.5000 324° Northwest 169 194 4,000 1,080 Climbing KA90
07:04AM 43.0972 -71.5531 321° Northwest 184 212 5,400 1,080 Climbing Boston Center
07:05AM 43.1350 -71.5950 321° Northwest 173 199 6,600 960 Climbing Boston Center
07:06AM 43.1686 -71.6372 318° Northwest 168 193 7,400 600 Climbing Boston Center
07:07AM 43.2064 -71.6794 321° Northwest 169 194 7,900 300 Climbing Boston Center
07:08AM 43.2464 -71.7303 317° Northwest 186 214 8,000  Climbing Boston Center
07:09AM 43.2925 -71.7869 318° Northwest 211 243 8,000  Level Boston Center
07:10AM 43.3408 -71.8319 326° Northwest 216 249 8,000  Level Boston Center
07:11AM 43.3869 -71.8858 320° Northwest 216 249 8,000 -60 Level Boston Center
07:12AM 43.4331 -71.9425 318° Northwest 216 249 7,900  Descending Boston Center
07:13AM 43.4769 -71.9967 318° Northwest 216 249 8,000  Climbing Boston Center
07:14AM 43.5231 -72.0478 321° Northwest 211 243 7,900 -60 Descending Boston Center
07:15AM 43.5711 -72.1047 319° Northwest 211 243 7,900  Level Boston Center
07:16AM 43.6192 -72.1561 322° Northwest 211 243 7,900 -60 Level Boston Center
07:17AM 43.6653 -72.2106 320° Northwest 211 243 7,800  Descending Boston Center
07:18AM 43.7111 -72.2650 319° Northwest 211 243 7,900  Climbing Boston Center
07:19AM 43.7592 -72.3164 322° Northwest 211 243 7,900  Level Boston Center
07:20AM 43.8111 -72.3681 324° Northwest 217 250 8,000  Climbing Boston Center
07:21AM 43.8572 -72.4200 321° Northwest 217 250 7,900 -60 Descending Boston Center
07:22AM 43.9050 -72.4747 320° Northwest 217 250 7,900  Level Boston Center
07:23AM 43.9508 -72.5294 319° Northwest 217 250 8,000 60 Climbing Boston Center
07:24AM 43.9967 -72.5844 319° Northwest 211 243 8,100 -60 Climbing Boston Center
07:25AM 44.0425 -72.6422 318° Northwest 217 250 7,900 -120 Descending Boston Center
07:26AM 44.0839 -72.7003 315° West 217 250 7,900  Level Boston Center
07:27AM 44.1339 -72.7525 323° Northwest 222 255 7,900  Level Boston Center
07:28AM 44.1858 -72.7903 332° Northwest 222 255 7,900  Level Boston Center
07:29AM 44.2419 -72.8256 336° Northwest 222 255 7,900  Level Boston Center
07:30AM 44.2981 -72.8694 331° Northwest 222 255 7,900 -420 Level Boston Center
07:31AM 44.3500 -72.9161 327° Northwest 222 255 7,100 -540 Descending Boston Center
07:32AM 44.4019 -72.9603 329° Northwest 234 269 6,900 -300 Descending Boston Center
07:33AM 44.4578 -72.9986 334° Northwest 228 262 6,600 -720 Descending Boston Center
07:34AM 44.5117 -73.0514 325° Northwest 228 262 5,500 -1,200 Descending Boston Center
07:35AM 44.5614 -73.1103 320° Northwest 234 269 4,300 -840 Descending Boston Center
07:36AM 44.6131 -73.1719 320° Northwest 234 269 3,900 -240 Descending Boston Center
07:37AM 44.6378 -73.2219 305° West 189 217 3,900 -180 Level Boston Center
07:38AM 44.6561 -73.2833 293° West 168 193 3,600 -300 Descending Boston Center
07:40AM 44.5576 -73.2139 153° Southeast  Level FlightAware Approximate